Главная страница
METAR-TAF:

METAR-TAF

Аэропорты :

Эрншёльдсвик, Швеция

широта: 63-24N, долгота: 018-58E, высота над уровнем моря: 103 м

Текущие метеонаблюдения

Эта сводка был подготовлена 17 минут назад, в 20:50 UTC
Ветер 3 Узел от восточно-юго-восточный
Температура 10°C
Влажность 87%
Давление 1011 hPa
Видимость 10 км и более
Нет облачности ниже 1500 м, и нет кучево-дождевой облачности

METAR: ESNO 132050Z 12003KT CAVOK 10/08 Q1011

Время: 23:07 (21:07 UTC)

Прогноз

Эта сводка был подготовлена 3 часа и 37 минут назад, в 17:30 UTC
Прогноз действительный с 13-го 18 UTC до 13-го 22 UTC
Ветер 5 Узел от восточно-юго-восточный
Видимость 10 км и более
Нет облачности ниже 1500 м, и нет кучево-дождевой облачности

TAF: ESNO 131730Z 1318/1322 11005KT CAVOK

Метеонаблюдения и прогнозы для более 4000 аэропортов (сводки METAR и TAF).

Имеющиеся станции представлены на карте желтыми и красными точками.

Чтобы увидеть название станции, наведите на нее мышь.

Затем щелкните, чтобы увидеть метеонаблюдения и метеопрогнозы.

Управление картой: чтобы увеличить масштаб, щелкните зеленые кнопки с черным крестиком; чтобы уменьшить масштаб, щелкните зеленую кнопку с тире; для просмотра соседних карт щелкайте зеленые стрелки.


METAR-TAF: